Time;durP1;ratioP1;P1;durP2;ratioP2;P2;SDS_P1;SDS_P2;PMS_P1;PMS_P2;Temp;Humidity;BMP_temperature;BMP_pressure;BME280_temperature;BME280_humidity;BME280_pressure;Samples;Min_cycle;Max_cycle;Signal;HPM_P1;HPM_P2
2023/03/11 00:15:21;;;;;;;2.22;2.13;;;;;;;;;;5072587;28;20229;-84
2023/03/11 00:17:49;;;;;;;2.35;2.25;;;;;;;;;;5053481;28;20304;-86
2023/03/11 00:20:26;;;;;;;2.30;2.15;;;;;;;;;;5053314;28;20194;-84
2023/03/11 00:22:54;;;;;;;2.45;2.25;;;;;;;;;;5053617;28;20630;-85
2023/03/11 00:25:25;;;;;;;2.08;1.92;;;;;;;;;;5053108;28;20217;-85
2023/03/11 00:27:52;;;;;;;2.03;1.60;;;;;;;;;;5068792;22;20235;-80
2023/03/11 00:30:22;;;;;;;2.72;1.85;;;;;;;;;;5063725;28;20221;-80
2023/03/11 00:32:52;;;;;;;2.00;1.90;;;;;;;;;;5066227;28;20685;-80
2023/03/11 00:35:23;;;;;;;1.88;1.58;;;;;;;;;;5071981;28;20248;-81
2023/03/11 00:37:55;;;;;;;2.08;1.90;;;;;;;;;;5071782;28;20578;-81
2023/03/11 00:40:25;;;;;;;2.47;2.28;;;;;;;;;;5072343;28;20276;-80
2023/03/11 00:42:53;;;;;;;1.90;1.80;;;;;;;;;;5072204;28;20201;-80
2023/03/11 00:45:21;;;;;;;2.90;2.50;;;;;;;;;;5075472;28;20293;-80
2023/03/11 00:47:50;;;;;;;3.42;2.35;;;;;;;;;;5076584;28;20312;-80
2023/03/11 00:50:19;;;;;;;1.95;1.70;;;;;;;;;;5075795;28;20227;-80
2023/03/11 00:52:48;;;;;;;2.75;2.20;;;;;;;;;;5076382;28;20203;-82
2023/03/11 00:55:19;;;;;;;1.80;1.70;;;;;;;;;;5076450;28;20224;-80
2023/03/11 00:57:47;;;;;;;2.40;2.20;;;;;;;;;;5076189;28;20576;-80
2023/03/11 01:00:17;;;;;;;2.03;1.88;;;;;;;;;;5075693;28;20274;-80
2023/03/11 01:02:46;;;;;;;2.13;2.03;;;;;;;;;;5076024;28;20204;-80
2023/03/11 01:05:14;;;;;;;1.85;1.75;;;;;;;;;;5075493;28;20603;-80
2023/03/11 01:07:41;;;;;;;2.20;2.00;;;;;;;;;;5075570;28;20291;-80
2023/03/11 01:10:11;;;;;;;2.28;1.98;;;;;;;;;;5075655;28;20228;-80
2023/03/11 01:12:39;;;;;;;2.08;1.98;;;;;;;;;;5075918;28;20211;-80
2023/03/11 01:15:09;;;;;;;2.63;2.42;;;;;;;;;;5075413;28;20315;-81
2023/03/11 01:17:36;;;;;;;2.08;1.92;;;;;;;;;;5075935;28;20208;-80
2023/03/11 01:20:07;;;;;;;1.90;1.80;;;;;;;;;;5075886;28;20284;-80
2023/03/11 01:22:34;;;;;;;2.55;2.35;;;;;;;;;;5075634;28;20672;-80
2023/03/11 01:25:02;;;;;;;2.30;2.10;;;;;;;;;;5075517;28;20220;-80
2023/03/11 01:27:30;;;;;;;1.70;1.60;;;;;;;;;;5075190;28;20205;-80
2023/03/11 01:29:57;;;;;;;2.53;2.33;;;;;;;;;;5074803;28;20668;-80
2023/03/11 01:32:25;;;;;;;2.08;1.98;;;;;;;;;;5075235;28;20564;-80
2023/03/11 01:34:52;;;;;;;2.47;2.28;;;;;;;;;;5075211;28;20217;-81
2023/03/11 01:37:21;;;;;;;2.15;2.05;;;;;;;;;;5074930;28;20287;-79
2023/03/11 01:39:49;;;;;;;2.50;1.80;;;;;;;;;;5074675;28;20283;-81
2023/03/11 01:42:16;;;;;;;2.53;1.70;;;;;;;;;;5074871;28;20207;-80
2023/03/11 01:44:43;;;;;;;4.20;1.77;;;;;;;;;;5074679;28;20225;-79
2023/03/11 01:47:35;;;;;;;2.28;2.03;;;;;;;;;;5074834;28;20735;-80
2023/03/11 01:50:07;;;;;;;2.13;2.03;;;;;;;;;;5074636;28;20224;-80
2023/03/11 01:52:36;;;;;;;1.70;1.60;;;;;;;;;;5075037;28;20209;-82
2023/03/11 01:55:05;;;;;;;2.13;2.03;;;;;;;;;;5073874;28;20213;-80
2023/03/11 01:57:33;;;;;;;1.92;1.83;;;;;;;;;;5074829;28;20232;-80
2023/03/11 02:00:05;;;;;;;2.75;1.77;;;;;;;;;;5074274;28;20679;-80
2023/03/11 02:02:36;;;;;;;3.15;2.30;;;;;;;;;;5075000;28;20197;-80
2023/03/11 02:05:05;;;;;;;2.00;1.90;;;;;;;;;;5074701;28;20220;-80
2023/03/11 02:07:33;;;;;;;2.28;2.10;;;;;;;;;;5074566;28;20224;-81
2023/03/11 02:10:02;;;;;;;2.05;1.83;;;;;;;;;;5074201;28;20307;-80
2023/03/11 02:12:30;;;;;;;1.85;1.70;;;;;;;;;;5074465;28;20205;-80
2023/03/11 02:14:59;;;;;;;2.90;2.17;;;;;;;;;;5074570;28;20221;-81
2023/03/11 02:17:27;;;;;;;2.00;1.50;;;;;;;;;;5074394;28;20215;-80
2023/03/11 02:20:11;;;;;;;2.17;2.00;;;;;;;;;;5074304;28;20288;-80
2023/03/11 02:22:39;;;;;;;1.80;1.70;;;;;;;;;;5074629;28;20239;-80
2023/03/11 02:25:14;;;;;;;2.08;1.88;;;;;;;;;;5074298;28;20673;-80
2023/03/11 02:27:46;;;;;;;1.80;1.70;;;;;;;;;;5074141;28;20219;-81
2023/03/11 02:30:15;;;;;;;5.72;2.20;;;;;;;;;;5061077;28;20284;-80
2023/03/11 02:32:46;;;;;;;3.60;2.30;;;;;;;;;;5054218;28;20240;-80
2023/03/11 02:35:14;;;;;;;3.10;2.10;;;;;;;;;;5054177;28;20224;-80
2023/03/11 02:37:46;;;;;;;2.63;2.08;;;;;;;;;;5054094;28;20293;-80
2023/03/11 02:40:38;;;;;;;2.00;1.80;;;;;;;;;;5053687;28;20202;-80
2023/03/11 02:43:11;;;;;;;5.13;2.63;;;;;;;;;;5054106;28;20206;-80
2023/03/11 02:45:39;;;;;;;2.20;2.00;;;;;;;;;;5053885;28;20684;-81
2023/03/11 02:48:09;;;;;;;1.88;1.77;;;;;;;;;;5053725;28;20216;-80
2023/03/11 02:50:37;;;;;;;2.45;2.13;;;;;;;;;;5053708;28;20225;-81
2023/03/11 02:53:05;;;;;;;2.00;1.90;;;;;;;;;;5053630;28;20587;-80
2023/03/11 02:55:33;;;;;;;2.88;1.98;;;;;;;;;;5053577;28;20208;-80
2023/03/11 02:58:00;;;;;;;2.78;2.10;;;;;;;;;;5053561;28;20205;-81
2023/03/11 03:00:29;;;;;;;2.40;2.20;;;;;;;;;;5068096;28;20291;-80
2023/03/11 03:02:57;;;;;;;2.15;2.00;;;;;;;;;;5073508;28;20292;-80
2023/03/11 03:05:24;;;;;;;3.00;2.05;;;;;;;;;;5073542;28;20284;-80
2023/03/11 03:07:52;;;;;;;1.77;1.67;;;;;;;;;;5072803;28;20201;-80
2023/03/11 03:10:22;;;;;;;2.40;1.90;;;;;;;;;;5073174;28;20232;-80
2023/03/11 03:12:49;;;;;;;1.98;1.88;;;;;;;;;;5073714;28;20216;-80
2023/03/11 03:15:17;;;;;;;1.23;1.17;;;;;;;;;;5073193;28;20307;-81
2023/03/11 03:17:46;;;;;;;1.83;1.67;;;;;;;;;;5072737;28;20291;-80
2023/03/11 03:20:14;;;;;;;2.58;1.67;;;;;;;;;;5073093;28;20291;-80
2023/03/11 03:22:43;;;;;;;2.25;2.10;;;;;;;;;;5073233;28;20283;-80
2023/03/11 03:25:11;;;;;;;2.42;1.92;;;;;;;;;;5072979;28;20312;-80
2023/03/11 03:27:39;;;;;;;1.60;1.50;;;;;;;;;;5072909;28;20228;-81
2023/03/11 03:30:09;;;;;;;1.80;1.63;;;;;;;;;;5060657;28;20202;-80
2023/03/11 03:32:37;;;;;;;2.10;1.73;;;;;;;;;;5053148;28;20225;-80
2023/03/11 03:35:08;;;;;;;2.13;1.77;;;;;;;;;;5053034;28;20642;-81
2023/03/11 03:37:36;;;;;;;1.42;1.33;;;;;;;;;;5052939;28;20280;-80
2023/03/11 03:40:07;;;;;;;2.30;1.48;;;;;;;;;;5052752;28;20233;-82
2023/03/11 03:42:36;;;;;;;4.55;2.17;;;;;;;;;;5052798;28;20197;-80
2023/03/11 03:45:04;;;;;;;4.45;2.10;;;;;;;;;;5052636;28;20221;-80
2023/03/11 03:47:32;;;;;;;2.03;1.83;;;;;;;;;;5052567;28;20225;-81
2023/03/11 03:50:00;;;;;;;2.45;1.15;;;;;;;;;;5052544;28;20670;-82
2023/03/11 03:52:28;;;;;;;2.45;2.25;;;;;;;;;;5052736;28;20847;-80
2023/03/11 03:54:56;;;;;;;1.92;1.80;;;;;;;;;;5052524;28;20217;-80
2023/03/11 03:57:23;;;;;;;2.92;2.03;;;;;;;;;;5052712;28;20591;-80
2023/03/11 03:59:51;;;;;;;1.92;1.80;;;;;;;;;;5052356;28;20695;-80
2023/03/11 04:02:18;;;;;;;2.28;1.40;;;;;;;;;;5064595;28;20197;-80
2023/03/11 04:04:46;;;;;;;2.22;1.98;;;;;;;;;;5071975;28;20224;-81
2023/03/11 04:07:13;;;;;;;2.45;1.75;;;;;;;;;;5072399;28;20207;-80
2023/03/11 04:09:44;;;;;;;2.17;1.98;;;;;;;;;;5071958;28;20300;-80
2023/03/11 04:12:14;;;;;;;4.38;1.92;;;;;;;;;;5072284;28;20315;-80
2023/03/11 04:14:42;;;;;;;3.70;2.00;;;;;;;;;;5072292;28;20221;-80
2023/03/11 04:17:10;;;;;;;3.75;2.17;;;;;;;;;;5071759;28;20292;-80
2023/03/11 04:19:37;;;;;;;2.25;2.05;;;;;;;;;;5072099;28;20660;-80
2023/03/11 04:22:05;;;;;;;1.95;1.85;;;;;;;;;;5072391;28;20283;-80
2023/03/11 04:24:32;;;;;;;3.55;2.30;;;;;;;;;;5071909;28;20224;-80
2023/03/11 04:27:01;;;;;;;2.22;1.80;;;;;;;;;;5072090;28;20296;-80
2023/03/11 04:29:29;;;;;;;2.90;2.35;;;;;;;;;;5071543;28;20213;-80
2023/03/11 04:31:56;;;;;;;2.90;1.92;;;;;;;;;;5071670;28;20221;-80
2023/03/11 04:34:24;;;;;;;2.30;2.10;;;;;;;;;;5071985;28;20642;-80
2023/03/11 04:36:53;;;;;;;2.17;2.00;;;;;;;;;;5071961;28;20211;-80
2023/03/11 04:39:20;;;;;;;1.95;1.75;;;;;;;;;;5071945;28;20200;-80
2023/03/11 04:41:48;;;;;;;3.08;2.33;;;;;;;;;;5072013;28;20205;-80
2023/03/11 04:44:17;;;;;;;7.72;2.35;;;;;;;;;;5071819;28;20216;-80
2023/03/11 04:46:44;;;;;;;2.67;2.35;;;;;;;;;;5072182;28;20789;-80
2023/03/11 04:49:12;;;;;;;3.03;2.63;;;;;;;;;;5071596;28;20207;-80
2023/03/11 04:51:39;;;;;;;2.53;2.33;;;;;;;;;;5071031;28;20311;-80
2023/03/11 04:54:07;;;;;;;3.22;2.35;;;;;;;;;;5071772;28;20221;-80
2023/03/11 04:56:34;;;;;;;3.85;2.08;;;;;;;;;;5071716;28;20201;-80
2023/03/11 04:59:02;;;;;;;2.47;2.28;;;;;;;;;;5068749;28;20581;-80
2023/03/11 05:01:30;;;;;;;2.28;2.08;;;;;;;;;;5051642;28;20207;-80
2023/03/11 05:03:58;;;;;;;2.38;1.77;;;;;;;;;;5051909;28;20226;-80
2023/03/11 05:06:25;;;;;;;3.20;1.98;;;;;;;;;;5052293;28;20197;-82
2023/03/11 05:08:53;;;;;;;2.28;1.98;;;;;;;;;;5052985;28;20287;-80
2023/03/11 05:11:20;;;;;;;5.43;2.90;;;;;;;;;;5052627;28;20202;-82
2023/03/11 05:13:47;;;;;;;3.63;2.35;;;;;;;;;;5052383;28;20221;-80
2023/03/11 05:16:15;;;;;;;2.42;2.22;;;;;;;;;;5051529;28;20206;-80
2023/03/11 05:18:44;;;;;;;2.92;2.20;;;;;;;;;;5051476;28;20206;-80
2023/03/11 05:21:12;;;;;;;2.38;1.92;;;;;;;;;;5051488;28;20208;-80
2023/03/11 05:23:39;;;;;;;4.55;2.60;;;;;;;;;;5051558;28;20687;-80
2023/03/11 05:26:07;;;;;;;2.13;1.92;;;;;;;;;;5052033;28;20201;-80
2023/03/11 05:28:34;;;;;;;2.17;1.70;;;;;;;;;;5051378;28;20209;-80
2023/03/11 05:31:02;;;;;;;1.83;1.73;;;;;;;;;;5054283;28;20216;-81
2023/03/11 05:33:34;;;;;;;2.67;2.10;;;;;;;;;;5055760;28;20236;-80
2023/03/11 05:36:07;;;;;;;1.90;1.70;;;;;;;;;;5056276;28;20202;-80
2023/03/11 05:38:34;;;;;;;4.00;2.53;;;;;;;;;;5055951;28;20653;-81
2023/03/11 05:41:02;;;;;;;2.58;2.10;;;;;;;;;;5056044;28;20201;-83
2023/03/11 05:43:29;;;;;;;4.03;2.13;;;;;;;;;;5055245;28;20217;-85
2023/03/11 05:45:57;;;;;;;2.30;2.10;;;;;;;;;;5055418;28;20213;-85
2023/03/11 05:48:24;;;;;;;2.47;2.00;;;;;;;;;;5055849;28;20233;-84
2023/03/11 05:50:52;;;;;;;3.25;1.88;;;;;;;;;;5056931;28;20223;-85
2023/03/11 05:53:21;;;;;;;2.33;1.70;;;;;;;;;;5055795;28;20229;-83
2023/03/11 05:55:57;;;;;;;2.47;2.25;;;;;;;;;;5055342;28;20857;-85
2023/03/11 05:58:24;;;;;;;1.90;1.67;;;;;;;;;;5055596;28;20731;-83
2023/03/11 06:00:52;;;;;;;3.28;2.13;;;;;;;;;;5055332;28;20220;-85
2023/03/11 06:03:19;;;;;;;3.22;1.60;;;;;;;;;;5055181;28;20221;-85
2023/03/11 06:05:47;;;;;;;2.65;1.90;;;;;;;;;;5054726;28;20212;-83
2023/03/11 06:08:15;;;;;;;2.05;1.67;;;;;;;;;;5054487;28;20208;-84
2023/03/11 06:10:44;;;;;;;2.00;1.80;;;;;;;;;;5055011;28;20698;-84
2023/03/11 06:13:12;;;;;;;2.10;2.00;;;;;;;;;;5054439;28;20255;-86
2023/03/11 06:15:40;;;;;;;2.55;1.80;;;;;;;;;;5054108;28;20674;-86
2023/03/11 06:18:09;;;;;;;8.43;3.33;;;;;;;;;;5054995;28;20227;-86
2023/03/11 06:20:37;;;;;;;3.25;2.00;;;;;;;;;;5054606;28;20208;-85
2023/03/11 06:23:04;;;;;;;2.47;1.80;;;;;;;;;;5054562;28;20198;-84
2023/03/11 06:25:32;;;;;;;3.55;2.55;;;;;;;;;;5090386;22;20771;-80
2023/03/11 06:28:01;;;;;;;4.65;2.33;;;;;;;;;;5074820;28;20229;-80
2023/03/11 06:30:28;;;;;;;4.32;2.13;;;;;;;;;;5068749;28;20206;-81
2023/03/11 06:32:56;;;;;;;2.58;1.80;;;;;;;;;;5069586;28;20223;-78
2023/03/11 06:35:23;;;;;;;3.50;1.83;;;;;;;;;;5074108;28;20317;-79
2023/03/11 06:37:50;;;;;;;6.03;2.53;;;;;;;;;;5075538;28;20661;-79
2023/03/11 06:40:18;;;;;;;3.78;1.90;;;;;;;;;;5075832;28;20215;-79
2023/03/11 06:42:47;;;;;;;3.40;2.20;;;;;;;;;;5075587;28;20201;-79
2023/03/11 06:45:16;;;;;;;3.00;1.80;;;;;;;;;;5074520;28;20282;-80
2023/03/11 06:47:43;;;;;;;2.95;1.83;;;;;;;;;;5074812;28;20205;-80
2023/03/11 06:50:12;;;;;;;3.53;1.52;;;;;;;;;;5076847;28;20207;-79
2023/03/11 06:52:39;;;;;;;5.15;2.60;;;;;;;;;;5076639;28;20224;-80
2023/03/11 06:55:08;;;;;;;3.15;1.98;;;;;;;;;;5074204;28;20731;-79
2023/03/11 06:57:35;;;;;;;3.85;1.90;;;;;;;;;;5074277;28;20208;-80
2023/03/11 07:00:06;;;;;;;7.07;2.92;;;;;;;;;;5062015;28;20201;-79
2023/03/11 07:02:35;;;;;;;5.00;1.90;;;;;;;;;;5053893;28;20252;-79
2023/03/11 07:05:02;;;;;;;2.78;2.33;;;;;;;;;;5054408;28;20221;-80
2023/03/11 07:07:30;;;;;;;2.50;2.03;;;;;;;;;;5054516;28;20663;-80
2023/03/11 07:09:57;;;;;;;2.28;1.70;;;;;;;;;;5053543;28;20284;-79
2023/03/11 07:12:25;;;;;;;3.58;2.28;;;;;;;;;;5053992;28;20225;-79
2023/03/11 07:14:56;;;;;;;2.92;1.85;;;;;;;;;;5053969;28;20260;-79
2023/03/11 07:17:23;;;;;;;2.70;1.80;;;;;;;;;;5054116;28;20201;-79
2023/03/11 07:19:53;;;;;;;6.25;2.60;;;;;;;;;;5053623;28;20293;-79
2023/03/11 07:22:20;;;;;;;1.88;1.77;;;;;;;;;;5053756;28;20205;-79
2023/03/11 07:24:48;;;;;;;2.90;2.15;;;;;;;;;;5054049;28;20709;-79
2023/03/11 07:27:16;;;;;;;2.30;2.10;;;;;;;;;;5054318;28;20201;-79
2023/03/11 07:29:43;;;;;;;2.58;1.83;;;;;;;;;;5054399;28;20206;-79
2023/03/11 07:32:11;;;;;;;5.28;4.05;;;;;;;;;;5053541;28;20216;-80
2023/03/11 07:34:38;;;;;;;3.50;2.30;;;;;;;;;;5053867;28;20267;-80
2023/03/11 07:37:07;;;;;;;3.30;2.45;;;;;;;;;;5054393;28;20209;-79
2023/03/11 07:39:35;;;;;;;5.10;4.50;;;;;;;;;;5053973;28;20297;-80
2023/03/11 07:42:04;;;;;;;3.03;2.60;;;;;;;;;;5054563;28;20560;-80
2023/03/11 07:44:31;;;;;;;4.70;3.30;;;;;;;;;;5052761;28;20264;-80
2023/03/11 07:47:01;;;;;;;3.53;2.67;;;;;;;;;;5063076;28;20196;-80
2023/03/11 07:49:29;;;;;;;4.43;2.10;;;;;;;;;;5073694;28;20295;-80
2023/03/11 07:51:56;;;;;;;4.38;2.85;;;;;;;;;;5072927;28;20300;-79
2023/03/11 07:54:25;;;;;;;5.13;3.35;;;;;;;;;;5072692;28;20220;-80
2023/03/11 07:56:52;;;;;;;3.42;3.13;;;;;;;;;;5072705;28;20661;-80
2023/03/11 07:59:20;;;;;;;3.90;3.53;;;;;;;;;;5072879;28;20742;-81
2023/03/11 08:01:47;;;;;;;2.70;2.38;;;;;;;;;;5072512;28;20296;-80
2023/03/11 08:04:16;;;;;;;3.05;2.47;;;;;;;;;;5073126;28;20221;-80
2023/03/11 08:06:46;;;;;;;2.03;1.70;;;;;;;;;;5073783;28;20250;-80
2023/03/11 08:09:14;;;;;;;2.72;1.98;;;;;;;;;;5073239;28;20205;-80
2023/03/11 08:11:43;;;;;;;2.50;1.70;;;;;;;;;;5073706;28;20207;-80
2023/03/11 08:14:10;;;;;;;2.58;2.20;;;;;;;;;;5073347;28;20321;-80
2023/03/11 08:16:40;;;;;;;2.08;1.92;;;;;;;;;;5073325;28;20748;-79
2023/03/11 08:19:07;;;;;;;3.75;2.75;;;;;;;;;;5072949;28;20291;-80
2023/03/11 08:21:35;;;;;;;3.35;1.95;;;;;;;;;;5074534;28;20586;-81
2023/03/11 08:24:03;;;;;;;1.70;1.60;;;;;;;;;;5073310;28;20208;-80
2023/03/11 08:26:31;;;;;;;3.22;1.50;;;;;;;;;;5073703;28;20213;-80
2023/03/11 08:29:00;;;;;;;3.15;2.03;;;;;;;;;;5070139;28;20203;-81
2023/03/11 08:31:30;;;;;;;3.40;2.17;;;;;;;;;;5053876;28;20700;-80
2023/03/11 08:34:00;;;;;;;2.92;1.80;;;;;;;;;;5053480;28;20223;-80
2023/03/11 08:36:28;;;;;;;2.78;1.80;;;;;;;;;;5057954;28;20677;-79
2023/03/11 08:38:56;;;;;;;2.83;2.38;;;;;;;;;;5073617;28;20589;-80
2023/03/11 08:41:23;;;;;;;2.42;2.22;;;;;;;;;;5073762;28;20207;-80
2023/03/11 08:43:51;;;;;;;2.28;1.83;;;;;;;;;;5073825;28;20204;-80
2023/03/11 08:46:24;;;;;;;2.35;1.52;;;;;;;;;;5074153;28;20225;-80
2023/03/11 08:48:52;;;;;;;2.00;1.77;;;;;;;;;;5073602;28;20197;-80
2023/03/11 08:51:19;;;;;;;4.68;2.35;;;;;;;;;;5073621;28;20201;-80
2023/03/11 08:53:47;;;;;;;2.53;1.63;;;;;;;;;;5073405;28;20193;-80
2023/03/11 08:56:14;;;;;;;8.25;1.67;;;;;;;;;;5073605;28;20296;-79
2023/03/11 08:58:42;;;;;;;1.90;1.33;;;;;;;;;;5073003;28;20201;-80
2023/03/11 09:01:10;;;;;;;2.60;1.15;;;;;;;;;;5053092;28;20638;-80
2023/03/11 09:03:40;;;;;;;3.70;1.65;;;;;;;;;;5054185;28;20197;-82
2023/03/11 09:06:11;;;;;;;4.63;1.73;;;;;;;;;;5072198;28;20217;-81
2023/03/11 09:08:38;;;;;;;1.33;1.20;;;;;;;;;;5078038;28;20196;-81
2023/03/11 09:11:06;;;;;;;1.85;1.60;;;;;;;;;;5076423;28;20201;-81
2023/03/11 09:13:34;;;;;;;3.33;2.17;;;;;;;;;;5077425;28;20209;-80
2023/03/11 09:16:04;;;;;;;1.63;1.48;;;;;;;;;;5078290;28;20236;-81
2023/03/11 09:18:32;;;;;;;2.25;1.98;;;;;;;;;;5080383;28;20668;-81
2023/03/11 09:21:01;;;;;;;1.80;1.40;;;;;;;;;;5081035;28;20260;-81
2023/03/11 09:23:29;;;;;;;1.60;1.50;;;;;;;;;;5080980;28;20292;-81
2023/03/11 09:25:57;;;;;;;4.47;1.42;;;;;;;;;;5080092;28;20225;-80
2023/03/11 09:28:24;;;;;;;2.30;2.10;;;;;;;;;;5081774;28;20207;-81
2023/03/11 09:30:52;;;;;;;2.05;1.70;;;;;;;;;;5065363;28;20273;-82
2023/03/11 09:33:19;;;;;;;2.75;2.30;;;;;;;;;;5064204;28;20239;-81
2023/03/11 09:35:47;;;;;;;1.70;1.55;;;;;;;;;;5061380;28;20673;-83
2023/03/11 09:38:16;;;;;;;2.80;2.25;;;;;;;;;;5059044;28;20300;-82
2023/03/11 09:40:55;;;;;;;4.63;3.80;;;;;;;;;;5058456;28;20265;-80
2023/03/11 09:43:35;;;;;;;6.90;4.30;;;;;;;;;;5059063;28;20198;-82
2023/03/11 09:46:16;;;;;;;3.05;1.80;;;;;;;;;;5060838;28;20218;-82
2023/03/11 09:48:47;;;;;;;2.88;1.60;;;;;;;;;;5079642;28;20204;-81
2023/03/11 09:51:19;;;;;;;2.25;1.45;;;;;;;;;;5080720;28;20205;-82
2023/03/11 09:53:52;;;;;;;2.25;1.73;;;;;;;;;;5080638;28;20589;-81
2023/03/11 09:56:21;;;;;;;2.63;1.70;;;;;;;;;;5080429;28;20243;-81
2023/03/11 09:58:51;;;;;;;3.47;2.25;;;;;;;;;;5079170;28;20292;-81
2023/03/11 10:01:24;;;;;;;3.83;2.97;;;;;;;;;;5079505;28;20296;-82
2023/03/11 10:03:55;;;;;;;2.47;1.90;;;;;;;;;;5080073;28;20205;-81
2023/03/11 10:06:24;;;;;;;3.40;1.50;;;;;;;;;;5078991;28;20215;-82
2023/03/11 10:09:01;;;;;;;2.03;1.85;;;;;;;;;;5077485;28;20223;-82
2023/03/11 10:11:55;;;;;;;2.30;2.10;;;;;;;;;;5077325;28;20201;-81
2023/03/11 10:14:39;;;;;;;5.95;1.65;;;;;;;;;;5078232;28;20221;-82
2023/03/11 10:17:19;;;;;;;5.75;4.95;;;;;;;;;;5079673;28;20208;-83
2023/03/11 10:19:52;;;;;;;2.38;1.63;;;;;;;;;;5078859;28;20211;-84
2023/03/11 10:22:24;;;;;;;2.20;1.55;;;;;;;;;;5078983;28;20643;-82
2023/03/11 10:25:03;;;;;;;2.13;1.52;;;;;;;;;;5079016;28;20240;-83
2023/03/11 10:27:37;;;;;;;3.00;1.50;;;;;;;;;;5078931;28;20206;-82
2023/03/11 10:30:13;;;;;;;1.75;1.50;;;;;;;;;;5066208;28;20207;-81
2023/03/11 10:32:44;;;;;;;2.85;1.25;;;;;;;;;;5058270;28;20207;-82
2023/03/11 10:35:18;;;;;;;2.42;1.08;;;;;;;;;;5058087;28;20232;-82
2023/03/11 10:37:52;;;;;;;2.03;1.40;;;;;;;;;;5058414;28;20623;-83
2023/03/11 10:40:26;;;;;;;2.40;1.63;;;;;;;;;;5057176;28;20198;-83
2023/03/11 10:42:55;;;;;;;1.73;1.42;;;;;;;;;;5057836;28;20213;-83
2023/03/11 10:45:23;;;;;;;8.68;5.75;;;;;;;;;;5058072;28;20316;-82
2023/03/11 10:47:51;;;;;;;2.95;2.25;;;;;;;;;;5057965;28;20198;-83
2023/03/11 10:50:20;;;;;;;3.42;1.70;;;;;;;;;;5058187;28;20276;-83
2023/03/11 10:53:08;;;;;;;2.60;2.15;;;;;;;;;;5057609;28;20209;-83
2023/03/11 10:55:47;;;;;;;3.55;1.45;;;;;;;;;;5059504;28;20236;-82
2023/03/11 10:58:18;;;;;;;2.13;1.25;;;;;;;;;;5059355;28;20661;-84
2023/03/11 11:00:48;;;;;;;3.35;1.35;;;;;;;;;;5058131;28;20297;-84
2023/03/11 11:03:23;;;;;;;2.20;1.88;;;;;;;;;;5057573;28;20658;-82
2023/03/11 11:06:02;;;;;;;2.00;1.13;;;;;;;;;;5057043;28;20217;-82
2023/03/11 11:08:29;;;;;;;1.60;1.10;;;;;;;;;;5055077;28;20696;-81
2023/03/11 11:11:01;;;;;;;1.15;1.10;;;;;;;;;;5055221;28;20209;-81
2023/03/11 11:13:31;;;;;;;2.97;2.15;;;;;;;;;;5055327;28;20208;-82
2023/03/11 11:16:01;;;;;;;1.23;1.13;;;;;;;;;;5055000;28;20226;-81
2023/03/11 11:18:32;;;;;;;2.85;1.10;;;;;;;;;;5055413;28;20972;-82
2023/03/11 11:21:07;;;;;;;2.13;1.10;;;;;;;;;;5054587;28;20245;-82
2023/03/11 11:23:39;;;;;;;1.73;1.10;;;;;;;;;;5054973;28;20213;-81
2023/03/11 11:26:17;;;;;;;1.70;1.08;;;;;;;;;;5054475;28;20312;-81
2023/03/11 11:28:45;;;;;;;3.00;1.23;;;;;;;;;;5053605;28;20262;-80
2023/03/11 11:31:24;;;;;;;1.38;1.00;;;;;;;;;;5054353;28;20696;-80
2023/03/11 11:33:53;;;;;;;1.35;1.25;;;;;;;;;;5054179;28;20826;-80
2023/03/11 11:36:24;;;;;;;3.72;1.75;;;;;;;;;;5054361;28;20232;-81
2023/03/11 11:38:53;;;;;;;4.43;2.20;;;;;;;;;;5053189;28;20205;-81
2023/03/11 11:41:24;;;;;;;1.95;1.85;;;;;;;;;;5054725;28;20200;-81
2023/03/11 11:43:54;;;;;;;2.05;1.70;;;;;;;;;;5053447;28;20228;-81
2023/03/11 11:46:28;;;;;;;8.18;5.95;;;;;;;;;;5053820;28;20202;-81
2023/03/11 11:49:06;;;;;;;4.20;3.47;;;;;;;;;;5053805;28;20307;-80
2023/03/11 11:51:35;;;;;;;3.90;1.90;;;;;;;;;;5054237;28;20283;-82
2023/03/11 11:54:16;;;;;;;5.18;4.38;;;;;;;;;;5053623;28;20284;-81
2023/03/11 11:56:45;;;;;;;3.03;2.60;;;;;;;;;;5054116;28;20312;-80
2023/03/11 11:59:23;;;;;;;3.33;2.20;;;;;;;;;;5053214;28;20293;-82
2023/03/11 12:02:02;;;;;;;2.53;1.95;;;;;;;;;;5055038;28;20208;-80
2023/03/11 12:04:47;;;;;;;4.10;2.08;;;;;;;;;;5054738;28;20621;-81
2023/03/11 12:07:29;;;;;;;1.40;1.30;;;;;;;;;;5053853;28;20201;-80
2023/03/11 12:10:04;;;;;;;2.20;2.00;;;;;;;;;;5053276;28;20205;-80
2023/03/11 12:12:54;;;;;;;2.88;1.02;;;;;;;;;;5053440;28;20204;-80
2023/03/11 12:15:26;;;;;;;2.85;1.17;;;;;;;;;;5053103;28;20666;-81
2023/03/11 12:17:58;;;;;;;1.30;1.00;;;;;;;;;;5052779;28;20701;-79
2023/03/11 12:20:31;;;;;;;1.60;1.50;;;;;;;;;;5053128;28;20689;-79
2023/03/11 12:23:16;;;;;;;3.40;2.17;;;;;;;;;;5052711;28;20202;-81
2023/03/11 12:25:59;;;;;;;1.55;1.33;;;;;;;;;;5052997;28;20260;-80
2023/03/11 12:28:40;;;;;;;1.33;1.25;;;;;;;;;;5052595;28;20300;-81
2023/03/11 12:31:10;;;;;;;2.45;1.10;;;;;;;;;;5053121;28;20654;-81
2023/03/11 12:33:40;;;;;;;2.17;1.50;;;;;;;;;;5052514;28;20206;-81
2023/03/11 12:36:20;;;;;;;5.63;1.25;;;;;;;;;;5052659;28;20236;-80
2023/03/11 12:38:48;;;;;;;4.45;3.75;;;;;;;;;;5052353;28;20320;-81
2023/03/11 12:41:38;;;;;;;2.67;1.48;;;;;;;;;;5052601;28;20296;-79
2023/03/11 12:44:27;;;;;;;1.85;1.45;;;;;;;;;;5053077;28;20202;-80
2023/03/11 12:47:26;;;;;;;2.15;1.95;;;;;;;;;;5052527;28;20204;-80
2023/03/11 12:50:44;;;;;;;1.85;1.30;;;;;;;;;;5052979;28;20202;-80
2023/03/11 12:53:22;;;;;;;1.63;1.00;;;;;;;;;;5052990;28;20239;-81
2023/03/11 12:56:10;;;;;;;1.10;1.00;;;;;;;;;;5067257;28;20297;-80
2023/03/11 12:59:19;;;;;;;2.45;1.23;;;;;;;;;;5073112;28;20209;-80
2023/03/11 13:02:25;;;;;;;5.50;1.30;;;;;;;;;;5058752;28;20201;-80
2023/03/11 13:05:01;;;;;;;5.38;1.42;;;;;;;;;;5030481;28;20244;-80
2023/03/11 13:08:00;;;;;;;1.52;1.00;;;;;;;;;;5036415;28;20193;-79
2023/03/11 13:10:47;;;;;;;1.65;1.30;;;;;;;;;;5072770;28;20282;-79
2023/03/11 13:13:39;;;;;;;2.38;1.75;;;;;;;;;;5072711;28;20338;-80
2023/03/11 13:16:38;;;;;;;1.58;1.48;;;;;;;;;;5072724;28;20474;-80
2023/03/11 13:19:49;;;;;;;5.93;2.47;;;;;;;;;;5072587;28;20330;-80
2023/03/11 13:22:57;;;;;;;1.83;1.60;;;;;;;;;;5072449;28;20220;-80
2023/03/11 13:25:40;;;;;;;0.98;0.93;;;;;;;;;;5059104;28;20233;-80
2023/03/11 13:28:38;;;;;;;1.65;1.55;;;;;;;;;;5072685;28;20201;-80
2023/03/11 13:31:28;;;;;;;2.38;1.10;;;;;;;;;;5072345;28;20220;-80
2023/03/11 13:33:57;;;;;;;1.48;1.20;;;;;;;;;;5073028;28;20212;-80
2023/03/11 13:36:45;;;;;;;1.90;1.25;;;;;;;;;;5073080;28;20597;-79
2023/03/11 13:39:43;;;;;;;1.58;1.27;;;;;;;;;;5072654;28;20209;-81
2023/03/11 13:42:26;;;;;;;1.30;1.20;;;;;;;;;;5072843;28;20200;-80
2023/03/11 13:44:54;;;;;;;1.77;1.67;;;;;;;;;;5072569;28;20220;-80
2023/03/11 13:47:22;;;;;;;3.92;3.05;;;;;;;;;;5072075;28;20296;-80
2023/03/11 13:49:54;;;;;;;3.72;1.58;;;;;;;;;;5073235;28;20291;-79
2023/03/11 13:52:27;;;;;;;2.17;2.08;;;;;;;;;;5075653;28;20201;-79
2023/03/11 13:55:01;;;;;;;8.10;5.25;;;;;;;;;;5075456;28;20213;-80
2023/03/11 13:57:30;;;;;;;3.45;2.08;;;;;;;;;;5076037;28;20224;-80
2023/03/11 14:00:04;;;;;;;1.98;1.80;;;;;;;;;;5065342;28;20216;-80
2023/03/11 14:02:32;;;;;;;2.50;1.20;;;;;;;;;;5056042;28;20618;-80
2023/03/11 14:05:06;;;;;;;1.92;1.02;;;;;;;;;;5055856;28;20221;-80
2023/03/11 14:07:37;;;;;;;2.22;1.33;;;;;;;;;;5056425;28;20258;-81
2023/03/11 14:10:23;;;;;;;1.00;1.00;;;;;;;;;;5055726;28;20236;-80
2023/03/11 14:12:51;;;;;;;1.05;1.05;;;;;;;;;;5056217;28;20265;-80
2023/03/11 14:15:22;;;;;;;1.38;1.33;;;;;;;;;;5056034;28;20229;-81
2023/03/11 14:17:58;;;;;;;1.83;1.50;;;;;;;;;;5057271;28;20598;-82
2023/03/11 14:20:27;;;;;;;2.90;1.30;;;;;;;;;;5056632;28;20333;-81
2023/03/11 14:26:47;;;;;;;0.73;0.73;;;;;;;;;;5030370;28;20328;-80
2023/03/11 14:29:20;;;;;;;1.42;1.20;;;;;;;;;;5060608;28;20262;-80
2023/03/11 14:31:54;;;;;;;2.58;0.75;;;;;;;;;;5076528;28;20197;-81
2023/03/11 14:34:26;;;;;;;1.10;0.95;;;;;;;;;;5075868;28;20224;-80
2023/03/11 14:36:56;;;;;;;1.58;1.25;;;;;;;;;;5075658;28;20541;-80
2023/03/11 14:39:31;;;;;;;1.05;1.02;;;;;;;;;;5075727;28;20209;-81
2023/03/11 14:42:04;;;;;;;2.53;0.93;;;;;;;;;;5076030;28;20239;-81
2023/03/11 14:44:35;;;;;;;0.90;0.90;;;;;;;;;;5075883;28;20252;-82
2023/03/11 14:47:11;;;;;;;0.90;0.90;;;;;;;;;;5076104;28;20288;-79
2023/03/11 14:49:41;;;;;;;1.85;1.48;;;;;;;;;;5075463;28;20212;-80
2023/03/11 14:52:17;;;;;;;1.63;1.50;;;;;;;;;;5075778;28;20627;-80
2023/03/11 14:54:48;;;;;;;2.20;1.08;;;;;;;;;;5075149;28;20231;-80
2023/03/11 14:57:22;;;;;;;1.08;1.00;;;;;;;;;;5075228;28;20583;-80
2023/03/11 14:59:50;;;;;;;2.53;1.30;;;;;;;;;;5065597;28;20296;-81
2023/03/11 15:02:33;;;;;;;2.08;1.30;;;;;;;;;;5052867;28;20204;-79
2023/03/11 15:05:03;;;;;;;2.85;1.48;;;;;;;;;;5055487;28;20225;-80
2023/03/11 15:07:31;;;;;;;1.20;1.20;;;;;;;;;;5055440;28;20204;-80
2023/03/11 15:09:59;;;;;;;1.30;1.20;;;;;;;;;;5054390;28;20205;-80
2023/03/11 15:12:35;;;;;;;1.10;1.10;;;;;;;;;;5056027;28;20201;-79
2023/03/11 15:15:02;;;;;;;1.50;1.35;;;;;;;;;;5055248;28;20227;-80
2023/03/11 15:17:30;;;;;;;1.65;1.55;;;;;;;;;;5054851;28;20198;-80
2023/03/11 15:19:59;;;;;;;1.23;1.02;;;;;;;;;;5055242;28;20209;-79
2023/03/11 15:22:29;;;;;;;3.80;1.20;;;;;;;;;;5056464;28;20208;-81
2023/03/11 15:25:01;;;;;;;1.27;1.08;;;;;;;;;;5055448;28;20264;-81
2023/03/11 15:27:31;;;;;;;0.60;0.60;;;;;;;;;;5055697;28;20235;-80